Time;durP1;ratioP1;P1;durP2;ratioP2;P2;SDS_P1;SDS_P2;PMS_P1;PMS_P2;Temp;Humidity;BMP_temperature;BMP_pressure;BME280_temperature;BME280_humidity;BME280_pressure;Samples;Min_cycle;Max_cycle;Signal;HPM_P1;HPM_P2
2023/06/08 00:01:10;;;;;;;11.52;3.78;;;14.20;99.90;;;;;;4197835;28;20139;-87
2023/06/08 00:03:12;;;;;;;14.90;4.97;;;14.20;99.90;;;;;;4199919;28;20036;-87
2023/06/08 00:05:13;;;;;;;5.25;3.03;;;14.20;99.90;;;;;;4185557;28;20045;-86
2023/06/08 00:07:14;;;;;;;10.18;3.58;;;14.20;99.90;;;;;;4182334;28;20033;-87
2023/06/08 00:09:15;;;;;;;13.27;3.78;;;14.20;99.90;;;;;;4181219;28;20386;-86
2023/06/08 00:11:16;;;;;;;10.30;3.47;;;14.20;99.90;;;;;;4183243;28;20120;-87
2023/06/08 00:13:23;;;;;;;10.77;3.35;;;14.10;99.90;;;;;;4181366;28;20048;-86
2023/06/08 00:15:24;;;;;;;14.93;4.43;;;14.10;99.90;;;;;;4164802;28;20053;-87
2023/06/08 00:17:25;;;;;;;11.45;3.90;;;14.00;99.90;;;;;;4181978;28;20053;-86
2023/06/08 00:19:26;;;;;;;8.02;3.20;;;14.00;99.90;;;;;;4181746;28;20048;-86
2023/06/08 00:21:29;;;;;;;11.25;4.55;;;14.00;99.90;;;;;;4182910;28;20072;-86
2023/06/08 00:23:30;;;;;;;9.23;3.50;;;13.90;99.90;;;;;;4192129;28;20071;-87
2023/06/08 00:25:31;;;;;;;18.08;4.60;;;14.00;99.90;;;;;;4182996;28;20091;-87
2023/06/08 00:27:34;;;;;;;9.48;3.17;;;13.90;99.90;;;;;;4164363;28;20453;-87
2023/06/08 00:29:35;;;;;;;13.65;4.05;;;13.90;99.90;;;;;;4181198;28;20045;-87
2023/06/08 00:31:37;;;;;;;12.40;4.20;;;13.40;99.90;;;;;;4181414;28;20045;-87
2023/06/08 00:33:42;;;;;;;9.45;3.83;;;13.80;99.90;;;;;;4180523;28;20091;-86
2023/06/08 00:35:42;;;;;;;14.38;4.13;;;13.80;99.90;;;;;;4165529;28;20580;-87
2023/06/08 00:37:43;;;;;;;16.92;5.82;;;13.80;99.90;;;;;;4182048;28;20057;-86
2023/06/08 00:39:44;;;;;;;13.40;4.63;;;13.80;99.90;;;;;;4183257;28;20052;-87
2023/06/08 00:41:48;;;;;;;12.65;4.55;;;13.80;99.90;;;;;;4186044;28;20062;-87
2023/06/08 00:43:49;;;;;;;8.23;3.45;;;13.80;99.90;;;;;;4165863;28;20060;-87
2023/06/08 00:45:51;;;;;;;10.63;3.83;;;13.80;99.90;;;;;;4183392;28;20036;-88
2023/06/08 00:47:52;;;;;;;11.88;3.35;;;13.80;99.90;;;;;;4164688;28;20052;-86
2023/06/08 00:49:53;;;;;;;11.40;3.92;;;13.70;99.90;;;;;;4183636;28;20037;-86
2023/06/08 00:51:57;;;;;;;16.85;4.47;;;13.70;99.90;;;;;;4182685;28;20051;-86
2023/06/08 00:53:58;;;;;;;16.90;4.40;;;13.70;99.90;;;;;;4183168;28;20040;-86
2023/06/08 00:56:07;;;;;;;12.27;4.28;;;13.70;99.90;;;;;;4182417;28;20052;-86
2023/06/08 00:58:13;;;;;;;11.95;4.50;;;13.80;99.90;;;;;;4184984;28;20041;-87
2023/06/08 01:00:14;;;;;;;11.65;4.07;;;13.80;99.90;;;;;;4203745;28;20044;-87
2023/06/08 01:02:17;;;;;;;12.50;6.38;;;13.80;99.90;;;;;;4201495;28;20136;-85
2023/06/08 01:04:17;;;;;;;12.65;5.15;;;13.80;99.90;;;;;;4201666;28;20131;-87
2023/06/08 01:06:28;;;;;;;8.52;4.75;;;13.80;99.90;;;;;;4184829;28;20099;-87
2023/06/08 01:08:57;;;;;;;13.77;4.85;;;13.80;99.90;;;;;;4184537;28;20134;-87
2023/06/08 01:11:49;;;;;;;10.98;4.40;;;13.80;99.90;;;;;;4202612;28;20052;-87
2023/06/08 01:14:13;;;;;;;11.90;4.97;;;13.80;99.90;;;;;;4197577;28;20047;-87
2023/06/08 01:16:16;;;;;;;11.20;3.85;;;13.80;99.90;;;;;;4199770;28;20053;-87
2023/06/08 01:18:23;;;;;;;16.90;5.28;;;13.80;99.90;;;;;;4184890;28;20531;-86
2023/06/08 01:20:29;;;;;;;10.70;4.13;;;13.60;99.90;;;;;;4186580;28;20037;-87
2023/06/08 01:22:53;;;;;;;12.98;4.85;;;13.70;99.90;;;;;;4184471;28;20529;-86
2023/06/08 01:24:59;;;;;;;11.27;4.28;;;13.60;99.90;;;;;;4184553;28;20124;-87
2023/06/08 01:27:01;;;;;;;15.98;5.47;;;13.60;99.90;;;;;;4184772;28;20053;-86
2023/06/08 01:29:01;;;;;;;10.13;4.22;;;13.60;99.90;;;;;;4187508;28;20508;-87
2023/06/08 01:31:03;;;;;;;11.15;3.85;;;13.60;99.90;;;;;;4200450;28;20036;-87
2023/06/08 01:33:05;;;;;;;11.18;3.80;;;13.60;99.90;;;;;;4184731;28;20079;-86
2023/06/08 01:35:07;;;;;;;17.08;3.80;;;13.60;99.90;;;;;;4192406;28;20115;-87
2023/06/08 01:37:47;;;;;;;14.40;3.50;;;13.60;99.90;;;;;;4185388;28;20378;-86
2023/06/08 01:40:06;;;;;;;12.20;3.95;;;13.60;99.90;;;;;;4137535;28;20601;-86
2023/06/08 01:42:09;;;;;;;9.30;3.92;;;13.60;99.90;;;;;;4184138;28;20044;-86
2023/06/08 01:44:13;;;;;;;8.32;4.18;;;13.50;99.90;;;;;;4185908;28;20074;-86
2023/06/08 01:46:15;;;;;;;17.65;5.38;;;13.50;99.90;;;;;;4184122;28;20076;-87
2023/06/08 01:48:20;;;;;;;14.00;4.90;;;13.50;99.90;;;;;;4185316;28;20488;-86
2023/06/08 01:50:21;;;;;;;11.93;4.80;;;13.50;99.90;;;;;;4183810;28;20056;-87
2023/06/08 01:52:22;;;;;;;17.30;3.78;;;13.50;99.90;;;;;;4188895;28;20045;-87
2023/06/08 01:54:23;;;;;;;11.13;4.43;;;13.50;99.90;;;;;;4184869;28;20414;-86
2023/06/08 01:56:30;;;;;;;8.48;4.32;;;13.40;99.90;;;;;;4200319;28;20040;-87
2023/06/08 01:58:31;;;;;;;12.48;4.55;;;13.50;99.90;;;;;;4167814;28;20111;-86
2023/06/08 02:00:32;;;;;;;15.35;3.97;;;13.50;99.90;;;;;;4199474;28;20052;-87
2023/06/08 02:02:33;;;;;;;15.98;5.28;;;13.40;99.90;;;;;;4200715;28;20048;-87
2023/06/08 02:04:34;;;;;;;11.30;4.07;;;13.40;99.90;;;;;;4183696;28;20576;-87
2023/06/08 02:06:35;;;;;;;15.95;5.53;;;13.40;99.90;;;;;;4200076;28;20086;-87
2023/06/08 02:08:36;;;;;;;9.80;4.35;;;13.40;99.90;;;;;;4167203;28;20045;-87
2023/06/08 02:10:37;;;;;;;10.68;4.70;;;13.50;99.90;;;;;;4198452;28;20159;-87
2023/06/08 02:12:38;;;;;;;12.10;4.60;;;13.50;99.90;;;;;;4183878;28;20044;-86
2023/06/08 02:14:40;;;;;;;14.02;4.63;;;13.40;99.90;;;;;;4200093;28;20143;-87
2023/06/08 02:16:43;;;;;;;14.00;4.75;;;13.50;99.90;;;;;;4166642;28;20033;-86
2023/06/08 02:18:44;;;;;;;15.45;5.07;;;13.40;99.90;;;;;;4182561;28;20095;-86
2023/06/08 02:20:45;;;;;;;8.27;3.20;;;13.50;99.90;;;;;;4168580;28;20083;-87
2023/06/08 02:22:46;;;;;;;13.73;4.07;;;13.40;99.90;;;;;;4209946;28;20066;-86
2023/06/08 02:24:48;;;;;;;8.30;3.45;;;13.50;99.90;;;;;;4199674;28;20541;-86
2023/06/08 02:26:54;;;;;;;9.27;4.45;;;13.40;99.90;;;;;;4195898;28;20386;-86
2023/06/08 02:28:55;;;;;;;13.40;3.95;;;13.40;99.90;;;;;;4166067;28;20060;-87
2023/06/08 02:30:56;;;;;;;11.43;3.90;;;13.40;99.90;;;;;;4182940;28;20089;-86
2023/06/08 02:32:59;;;;;;;9.57;3.63;;;13.40;99.90;;;;;;4182930;28;20049;-86
2023/06/08 02:35:01;;;;;;;12.40;4.53;;;13.50;99.90;;;;;;4200291;28;20060;-86
2023/06/08 02:37:04;;;;;;;15.63;5.13;;;13.50;99.90;;;;;;4166539;28;20049;-86
2023/06/08 02:39:05;;;;;;;9.90;4.22;;;13.50;99.90;;;;;;4200581;28;20047;-86
2023/06/08 02:41:07;;;;;;;14.23;4.22;;;13.40;99.90;;;;;;4182937;28;20057;-86
2023/06/08 02:43:08;;;;;;;11.75;4.10;;;13.40;99.90;;;;;;4199968;28;20484;-86
2023/06/08 02:45:09;;;;;;;13.13;3.80;;;13.40;99.90;;;;;;4182756;28;20083;-86
2023/06/08 02:47:10;;;;;;;9.50;4.05;;;13.40;99.90;;;;;;4182478;28;20417;-87
2023/06/08 02:49:12;;;;;;;9.90;4.25;;;13.30;99.90;;;;;;4165890;28;20061;-87
2023/06/08 02:51:14;;;;;;;9.43;4.53;;;13.40;99.90;;;;;;4200803;28;20447;-87
2023/06/08 02:53:16;;;;;;;13.40;5.47;;;13.30;99.90;;;;;;4201364;28;20389;-87
2023/06/08 02:55:18;;;;;;;10.32;4.13;;;13.40;99.90;;;;;;4183290;28;20394;-87
2023/06/08 02:57:19;;;;;;;12.07;4.80;;;13.30;99.90;;;;;;4182633;28;20061;-87
2023/06/08 02:59:19;;;;;;;15.02;5.10;;;13.40;99.90;;;;;;4185967;28;20127;-87
2023/06/08 03:01:21;;;;;;;9.25;4.20;;;13.30;99.90;;;;;;4200022;28;20120;-87
2023/06/08 03:03:23;;;;;;;15.60;4.72;;;13.40;99.90;;;;;;4166234;28;20049;-86
2023/06/08 03:05:24;;;;;;;9.82;3.58;;;13.40;99.90;;;;;;4167042;28;20137;-87
2023/06/08 03:07:25;;;;;;;9.18;3.75;;;13.30;99.90;;;;;;4201437;28;20242;-87
2023/06/08 03:09:32;;;;;;;10.25;3.83;;;13.40;99.90;;;;;;4166304;28;20494;-87
2023/06/08 03:11:32;;;;;;;9.82;4.00;;;13.40;99.90;;;;;;4201156;28;20055;-87
2023/06/08 03:13:35;;;;;;;12.95;3.75;;;13.40;99.90;;;;;;4201113;28;20029;-87
2023/06/08 03:15:35;;;;;;;11.00;3.80;;;13.40;99.90;;;;;;4200791;28;20052;-86
2023/06/08 03:17:38;;;;;;;9.65;3.42;;;13.40;99.90;;;;;;4200456;28;20037;-87
2023/06/08 03:19:40;;;;;;;12.50;3.92;;;13.40;99.90;;;;;;4213791;28;20389;-87
2023/06/08 03:21:44;;;;;;;10.43;3.80;;;13.40;99.90;;;;;;4217442;28;20080;-87
2023/06/08 03:23:48;;;;;;;10.10;3.97;;;13.40;99.90;;;;;;4217589;28;20044;-87
2023/06/08 03:25:50;;;;;;;11.52;3.70;;;13.40;99.90;;;;;;4199667;28;20053;-87
2023/06/08 03:27:51;;;;;;;12.40;3.85;;;13.40;99.90;;;;;;4199509;28;20040;-87
2023/06/08 03:29:53;;;;;;;8.05;3.33;;;13.40;99.90;;;;;;4198532;28;20099;-86
2023/06/08 03:31:55;;;;;;;13.55;3.42;;;13.40;99.90;;;;;;4217751;28;20480;-87
2023/06/08 03:33:56;;;;;;;11.23;4.15;;;13.40;99.90;;;;;;4215980;28;20040;-87
2023/06/08 03:35:56;;;;;;;10.20;4.25;;;13.40;99.90;;;;;;4170884;28;20569;-87
2023/06/08 03:37:59;;;;;;;7.95;3.80;;;13.40;99.90;;;;;;4165593;28;20053;-87
2023/06/08 03:40:02;;;;;;;8.45;3.67;;;13.40;99.90;;;;;;4182508;28;20049;-87
2023/06/08 03:42:04;;;;;;;15.30;3.90;;;13.40;99.90;;;;;;4183504;28;20068;-87
2023/06/08 03:44:05;;;;;;;14.80;4.47;;;13.50;99.90;;;;;;4166297;28;20115;-87
2023/06/08 03:46:05;;;;;;;14.18;4.22;;;13.40;99.90;;;;;;4182805;28;20554;-86
2023/06/08 03:48:06;;;;;;;13.57;4.65;;;13.50;99.90;;;;;;4181010;28;20029;-87
2023/06/08 03:50:08;;;;;;;11.20;4.40;;;13.50;99.90;;;;;;4200137;28;20097;-87
2023/06/08 03:52:10;;;;;;;10.85;3.53;;;13.50;99.90;;;;;;4199440;28;20119;-87
2023/06/08 03:54:11;;;;;;;15.55;4.00;;;13.50;99.90;;;;;;4203686;28;20080;-88
2023/06/08 03:56:12;;;;;;;11.45;3.60;;;13.50;99.90;;;;;;4181621;28;20049;-87
2023/06/08 03:58:13;;;;;;;11.27;4.20;;;13.50;99.90;;;;;;4164814;28;20056;-87
2023/06/08 04:00:15;;;;;;;13.07;3.50;;;13.50;99.90;;;;;;4185971;28;20535;-87
2023/06/08 04:02:15;;;;;;;7.60;3.15;;;13.50;99.90;;;;;;4181269;28;20049;-86
2023/06/08 04:04:18;;;;;;;12.13;3.95;;;13.50;99.90;;;;;;4181681;28;20053;-87
2023/06/08 04:06:31;;;;;;;12.73;4.28;;;13.50;99.90;;;;;;4181479;28;20063;-86
2023/06/08 04:08:32;;;;;;;13.68;4.15;;;13.40;99.90;;;;;;4199188;28;20052;-87
2023/06/08 04:10:33;;;;;;;14.85;3.92;;;13.40;99.90;;;;;;4181931;28;20489;-86
2023/06/08 04:12:33;;;;;;;14.35;4.15;;;13.40;99.90;;;;;;4182292;28;20064;-87
2023/06/08 04:14:34;;;;;;;14.13;3.83;;;13.40;99.90;;;;;;4166046;28;20128;-87
2023/06/08 04:16:36;;;;;;;10.93;3.70;;;12.90;99.90;;;;;;4198179;28;20485;-87
2023/06/08 04:18:42;;;;;;;9.82;3.33;;;13.50;99.90;;;;;;4199922;28;20116;-87
2023/06/08 04:20:43;;;;;;;9.27;3.92;;;13.50;99.90;;;;;;4199372;28;20087;-87
2023/06/08 04:22:43;;;;;;;15.80;4.03;;;13.50;99.90;;;;;;4174546;28;20064;-87
2023/06/08 04:24:44;;;;;;;11.38;3.70;;;13.60;99.90;;;;;;4216255;28;20047;-87
2023/06/08 04:26:45;;;;;;;11.73;3.80;;;13.60;99.90;;;;;;4180648;28;20158;-87
2023/06/08 04:28:48;;;;;;;10.73;3.83;;;13.60;99.90;;;;;;4198549;28;20047;-87
2023/06/08 04:30:50;;;;;;;10.93;3.28;;;13.20;99.90;;;;;;4193261;28;20087;-84
2023/06/08 04:32:51;;;;;;;13.88;4.10;;;13.60;99.90;;;;;;4181958;28;20056;-85
2023/06/08 04:34:52;;;;;;;12.30;3.50;;;13.60;99.90;;;;;;4201985;28;20400;-84
2023/06/08 04:36:53;;;;;;;17.00;4.60;;;13.60;99.90;;;;;;4202057;28;20055;-83
2023/06/08 04:38:56;;;;;;;9.48;3.17;;;13.70;99.90;;;;;;4184182;28;20045;-83
2023/06/08 04:40:56;;;;;;;10.73;3.75;;;13.70;99.90;;;;;;4202495;28;20412;-84
2023/06/08 04:42:59;;;;;;;10.73;3.55;;;13.70;99.90;;;;;;4210029;28;20043;-84
2023/06/08 04:45:03;;;;;;;8.88;3.70;;;13.80;99.90;;;;;;4200984;28;20079;-83
2023/06/08 04:47:07;;;;;;;11.82;3.42;;;13.80;99.90;;;;;;4213189;28;20539;-83
2023/06/08 04:49:09;;;;;;;7.43;3.05;;;13.80;99.90;;;;;;4209929;28;20049;-84
2023/06/08 04:51:11;;;;;;;9.55;3.70;;;13.80;99.90;;;;;;4201445;28;20040;-84
2023/06/08 04:53:13;;;;;;;13.77;3.58;;;13.80;99.90;;;;;;4215477;28;20040;-83
2023/06/08 04:55:13;;;;;;;15.57;4.30;;;13.80;99.90;;;;;;4203683;28;20404;-84
2023/06/08 04:57:15;;;;;;;10.93;4.03;;;13.80;99.90;;;;;;4201518;28;20028;-83
2023/06/08 04:59:16;;;;;;;13.75;3.53;;;13.80;99.90;;;;;;4201411;28;20396;-84
2023/06/08 05:01:17;;;;;;;11.32;3.80;;;13.80;99.90;;;;;;4206970;28;20115;-83
2023/06/08 05:03:21;;;;;;;16.48;4.97;;;13.80;99.90;;;;;;4217666;28;20040;-83
2023/06/08 05:05:22;;;;;;;15.60;3.55;;;13.80;99.90;;;;;;4218527;28;20075;-83
2023/06/08 05:07:23;;;;;;;13.27;3.42;;;13.90;99.90;;;;;;4217740;28;20040;-82
2023/06/08 05:09:25;;;;;;;16.00;3.80;;;13.90;99.90;;;;;;4196983;28;20523;-84
2023/06/08 05:11:26;;;;;;;11.70;3.00;;;13.90;99.90;;;;;;4184446;28;20080;-82
2023/06/08 05:13:26;;;;;;;16.83;3.65;;;14.00;99.90;;;;;;4200815;28;20051;-83
2023/06/08 05:15:28;;;;;;;13.45;4.65;;;14.00;99.90;;;;;;4183229;28;20528;-83
2023/06/08 05:17:29;;;;;;;9.00;3.28;;;14.10;99.90;;;;;;4182477;28;20045;-83
2023/06/08 05:19:31;;;;;;;11.32;3.67;;;13.90;99.90;;;;;;4214342;28;20079;-83
2023/06/08 05:21:32;;;;;;;8.02;3.00;;;14.20;99.90;;;;;;4217626;28;20070;-83
2023/06/08 05:23:32;;;;;;;12.18;3.65;;;14.20;99.90;;;;;;4218704;28;20556;-83
2023/06/08 05:25:37;;;;;;;13.93;3.63;;;14.20;99.90;;;;;;4218743;28;20048;-83
2023/06/08 05:27:37;;;;;;;8.25;3.00;;;14.30;99.90;;;;;;4217855;28;20071;-83
2023/06/08 05:29:38;;;;;;;12.00;5.00;;;14.30;99.90;;;;;;4200223;28;20047;-83
2023/06/08 05:31:42;;;;;;;13.95;3.38;;;14.30;99.90;;;;;;4217705;28;20075;-84
2023/06/08 05:33:43;;;;;;;12.68;3.63;;;14.30;99.90;;;;;;4218039;28;20054;-83
2023/06/08 05:35:45;;;;;;;12.10;3.92;;;14.40;99.90;;;;;;4211460;28;20192;-83
2023/06/08 05:37:46;;;;;;;15.55;3.85;;;14.40;99.90;;;;;;4185857;28;20052;-83
2023/06/08 05:39:46;;;;;;;13.10;3.33;;;14.40;99.90;;;;;;4210600;28;20040;-83
2023/06/08 05:41:47;;;;;;;10.57;2.85;;;14.50;99.90;;;;;;4217397;28;20048;-83
2023/06/08 05:43:48;;;;;;;13.35;4.32;;;14.50;99.90;;;;;;4199373;28;20101;-82
2023/06/08 05:45:49;;;;;;;14.57;3.67;;;14.60;99.90;;;;;;4217694;28;20484;-83
2023/06/08 05:47:49;;;;;;;10.05;3.17;;;14.60;99.90;;;;;;4199270;28;20033;-83
2023/06/08 05:49:50;;;;;;;13.57;3.78;;;14.70;99.90;;;;;;4215439;28;20047;-83
2023/06/08 05:51:51;;;;;;;10.38;3.60;;;14.80;99.90;;;;;;4199656;28;20040;-83
2023/06/08 05:53:52;;;;;;;10.10;3.22;;;14.80;99.90;;;;;;4204800;28;20036;-83
2023/06/08 05:55:53;;;;;;;8.30;3.10;;;14.80;99.90;;;;;;4200516;28;20040;-83
2023/06/08 05:57:54;;;;;;;8.77;2.95;;;14.90;99.90;;;;;;4201179;28;20507;-83
2023/06/08 05:59:55;;;;;;;14.35;2.97;;;14.90;99.90;;;;;;4189233;28;20044;-85
2023/06/08 06:01:56;;;;;;;13.95;4.10;;;14.90;99.90;;;;;;4174620;28;20456;-85
2023/06/08 06:03:57;;;;;;;10.80;3.42;;;15.00;99.90;;;;;;4198892;28;20055;-85
2023/06/08 06:05:58;;;;;;;11.45;4.03;;;15.00;99.90;;;;;;4210617;28;20044;-85
2023/06/08 06:07:58;;;;;;;9.15;2.97;;;15.10;99.90;;;;;;4217548;28;20048;-85
2023/06/08 06:09:59;;;;;;;14.50;3.90;;;15.10;99.90;;;;;;4217972;28;20035;-85
2023/06/08 06:12:01;;;;;;;12.65;4.18;;;15.10;99.90;;;;;;4217272;28;20074;-84
2023/06/08 06:14:02;;;;;;;9.50;3.28;;;15.20;99.90;;;;;;4199407;28;20083;-84
2023/06/08 06:16:03;;;;;;;13.68;4.15;;;15.20;99.90;;;;;;4198983;28;20471;-85
2023/06/08 06:18:04;;;;;;;13.40;3.88;;;15.30;99.90;;;;;;4210598;28;20466;-85
2023/06/08 06:20:06;;;;;;;13.18;2.90;;;15.50;99.90;;;;;;4217157;28;20055;-84
2023/06/08 06:22:09;;;;;;;9.48;3.65;;;15.60;99.90;;;;;;4217014;28;20083;-84
2023/06/08 06:24:09;;;;;;;16.88;3.22;;;15.60;99.90;;;;;;4199045;28;20128;-85
2023/06/08 06:26:11;;;;;;;13.35;4.57;;;15.60;99.90;;;;;;4182311;28;20041;-86
2023/06/08 06:28:12;;;;;;;13.07;3.95;;;15.70;99.90;;;;;;4217716;28;20093;-85
2023/06/08 06:30:13;;;;;;;10.20;2.40;;;15.70;99.90;;;;;;4217228;28;20480;-86
2023/06/08 06:32:14;;;;;;;11.10;2.80;;;15.70;99.90;;;;;;4181907;28;20512;-85
2023/06/08 06:34:16;;;;;;;12.25;2.72;;;15.80;99.90;;;;;;4217704;28;20047;-85
2023/06/08 06:36:17;;;;;;;10.23;2.88;;;15.90;99.90;;;;;;4216638;28;20047;-85
2023/06/08 06:38:18;;;;;;;11.60;3.13;;;16.00;99.90;;;;;;4217603;28;20028;-84
2023/06/08 06:40:19;;;;;;;10.18;3.25;;;16.10;99.90;;;;;;4216427;28;20048;-85
2023/06/08 06:42:20;;;;;;;8.98;3.00;;;16.20;99.90;;;;;;4198999;28;20495;-85
2023/06/08 06:44:21;;;;;;;15.18;4.05;;;16.30;99.90;;;;;;4198982;28;20044;-85
2023/06/08 06:46:22;;;;;;;14.63;3.22;;;16.40;99.90;;;;;;4198974;28;20040;-84
2023/06/08 06:48:23;;;;;;;14.07;4.20;;;16.60;99.90;;;;;;4217264;28;20044;-84
2023/06/08 06:50:25;;;;;;;8.18;2.53;;;16.80;99.90;;;;;;4197965;28;20071;-85
2023/06/08 06:52:26;;;;;;;9.30;3.38;;;16.90;99.90;;;;;;4198992;28;20036;-85
2023/06/08 06:54:27;;;;;;;7.32;2.38;;;16.90;99.90;;;;;;4214944;28;20506;-84
2023/06/08 06:56:27;;;;;;;6.13;2.53;;;17.00;99.90;;;;;;4198549;28;20075;-84
2023/06/08 06:58:29;;;;;;;9.00;2.47;;;17.00;99.90;;;;;;4216016;28;20099;-84
2023/06/08 07:00:37;;;;;;;11.73;2.45;;;17.00;99.90;;;;;;4216233;28;20376;-84
2023/06/08 07:02:38;;;;;;;7.47;2.90;;;17.00;99.90;;;;;;4180781;28;20521;-84
2023/06/08 07:04:40;;;;;;;8.23;2.45;;;17.10;99.90;;;;;;4182149;28;20045;-85
2023/06/08 07:06:42;;;;;;;12.50;2.80;;;17.10;99.90;;;;;;4208976;28;20115;-85
2023/06/08 07:08:43;;;;;;;8.15;2.67;;;17.10;99.90;;;;;;4214957;28;20040;-85
2023/06/08 07:10:44;;;;;;;11.80;4.05;;;17.10;99.90;;;;;;4214932;28;20506;-85
2023/06/08 07:12:45;;;;;;;9.63;2.30;;;17.10;99.90;;;;;;4197689;28;20048;-84
2023/06/08 07:14:45;;;;;;;10.85;3.35;;;17.10;99.90;;;;;;4197385;28;20062;-85
2023/06/08 07:16:48;;;;;;;14.57;3.10;;;17.20;99.90;;;;;;4209253;28;20126;-84
2023/06/08 07:18:50;;;;;;;13.48;2.45;;;17.20;99.90;;;;;;4215856;28;20040;-85
2023/06/08 07:21:00;;;;;;;11.85;3.05;;;17.30;99.90;;;;;;4208981;28;20041;-86
2023/06/08 07:23:01;;;;;;;8.23;2.53;;;17.40;99.90;;;;;;4210853;28;20094;-85
2023/06/08 07:25:08;;;;;;;11.02;3.47;;;17.40;99.90;;;;;;4217260;28;20040;-86
2023/06/08 07:27:09;;;;;;;13.27;3.13;;;17.50;99.90;;;;;;4216379;28;20043;-85
2023/06/08 07:29:09;;;;;;;6.65;2.28;;;17.60;99.90;;;;;;4181448;28;20045;-85
2023/06/08 07:31:10;;;;;;;9.70;2.85;;;17.70;99.90;;;;;;4210877;28;20068;-84
2023/06/08 07:33:11;;;;;;;13.82;3.45;;;17.80;99.90;;;;;;4191507;28;20120;-85
2023/06/08 07:35:12;;;;;;;11.68;3.05;;;17.90;99.90;;;;;;4212502;28;20046;-85
2023/06/08 07:37:13;;;;;;;11.07;2.85;;;18.00;99.90;;;;;;4197282;28;20169;-87
2023/06/08 07:39:14;;;;;;;11.00;2.38;;;18.10;99.90;;;;;;4215708;28;20071;-85
2023/06/08 07:41:14;;;;;;;11.90;2.63;;;18.20;99.90;;;;;;4215102;28;20031;-85
2023/06/08 07:43:15;;;;;;;8.63;2.85;;;18.30;99.90;;;;;;4215517;28;20047;-84
2023/06/08 07:45:18;;;;;;;8.73;2.60;;;18.40;99.90;;;;;;4215086;28;20075;-84
2023/06/08 07:47:19;;;;;;;7.28;2.35;;;18.40;99.90;;;;;;4214879;28;20080;-84
2023/06/08 07:49:20;;;;;;;14.23;4.07;;;18.40;99.90;;;;;;4210387;28;20051;-84
2023/06/08 07:51:20;;;;;;;14.90;2.92;;;18.40;99.90;;;;;;4194781;28;20497;-84
2023/06/08 07:53:21;;;;;;;14.55;3.75;;;18.50;99.90;;;;;;4215298;28;20613;-85
2023/06/08 07:55:22;;;;;;;9.20;2.67;;;18.60;99.90;;;;;;4213203;28;20044;-85
2023/06/08 07:57:23;;;;;;;9.93;2.97;;;18.80;99.90;;;;;;4198585;28;20048;-86
2023/06/08 07:59:25;;;;;;;8.18;3.13;;;18.90;99.90;;;;;;4215023;28;20488;-85
2023/06/08 08:01:26;;;;;;;10.15;2.83;;;19.00;99.90;;;;;;4185624;28;20131;-85
2023/06/08 08:03:29;;;;;;;11.07;2.53;;;19.10;99.90;;;;;;4197081;28;20041;-85
2023/06/08 08:05:30;;;;;;;10.60;3.15;;;19.30;99.90;;;;;;4197735;28;20491;-84
2023/06/08 08:07:31;;;;;;;10.75;3.15;;;19.30;99.90;;;;;;4214169;28;20054;-84
2023/06/08 08:09:33;;;;;;;7.90;2.20;;;19.40;99.90;;;;;;4197721;28;20044;-84
2023/06/08 08:11:34;;;;;;;11.18;2.58;;;19.50;99.90;;;;;;4199394;28;20033;-84
2023/06/08 08:13:35;;;;;;;14.63;3.05;;;19.50;99.90;;;;;;4180626;28;20049;-85
2023/06/08 08:15:35;;;;;;;9.50;2.58;;;19.50;99.90;;;;;;4199347;28;20519;-84
2023/06/08 08:17:36;;;;;;;14.85;3.00;;;19.70;99.90;;;;;;4214451;28;20046;-85
2023/06/08 08:19:40;;;;;;;5.57;2.40;;;19.80;99.90;;;;;;4216200;28;20044;-84
2023/06/08 08:21:41;;;;;;;9.55;2.33;;;20.00;99.90;;;;;;4209642;28;20085;-84
2023/06/08 08:23:41;;;;;;;11.15;2.30;;;20.00;99.90;;;;;;4214363;28;20094;-84
2023/06/08 08:25:42;;;;;;;6.82;2.20;;;20.20;99.90;;;;;;4214584;28;20048;-83
2023/06/08 08:27:43;;;;;;;9.98;2.42;;;20.30;99.90;;;;;;4212358;28;20028;-84
2023/06/08 08:29:44;;;;;;;7.38;3.00;;;20.50;99.90;;;;;;4196900;28;20048;-83
2023/06/08 08:31:45;;;;;;;9.93;2.70;;;20.50;99.90;;;;;;4214300;28;20067;-83
2023/06/08 08:33:45;;;;;;;8.32;2.85;;;20.60;99.90;;;;;;4214988;28;20036;-84
2023/06/08 08:35:47;;;;;;;9.25;3.08;;;20.80;99.90;;;;;;4215219;28;20047;-84
2023/06/08 08:37:48;;;;;;;10.82;2.95;;;20.90;99.90;;;;;;4196982;28;20052;-83
2023/06/08 08:39:49;;;;;;;7.97;2.38;;;21.10;99.90;;;;;;4196034;28;20098;-83
2023/06/08 08:41:54;;;;;;;13.27;2.22;;;21.20;99.90;;;;;;4214423;28;20100;-84
2023/06/08 08:44:07;;;;;;;9.52;2.40;;;21.30;99.90;;;;;;4215433;28;20028;-83
2023/06/08 08:46:09;;;;;;;10.63;2.90;;;21.50;99.90;;;;;;4179838;28;20064;-84
2023/06/08 08:48:13;;;;;;;14.68;2.70;;;21.60;99.90;;;;;;4215337;28;20105;-84
2023/06/08 08:50:16;;;;;;;8.82;2.42;;;21.60;99.90;;;;;;4215142;28;20040;-82
2023/06/08 08:52:19;;;;;;;5.25;2.03;;;21.60;99.90;;;;;;4195922;28;20041;-84
2023/06/08 08:54:31;;;;;;;7.38;2.45;;;21.60;99.90;;;;;;4202881;28;20080;-83
2023/06/08 08:56:38;;;;;;;9.50;2.85;;;21.70;99.90;;;;;;4198996;28;20037;-84
2023/06/08 08:58:40;;;;;;;7.03;2.33;;;21.90;99.90;;;;;;4202367;28;20051;-84
2023/06/08 09:00:41;;;;;;;7.30;2.10;;;22.00;99.90;;;;;;4196877;28;20079;-83
2023/06/08 09:02:42;;;;;;;12.93;3.60;;;21.90;99.90;;;;;;4216007;28;20044;-84
2023/06/08 09:04:45;;;;;;;17.15;3.65;;;22.20;99.90;;;;;;4212655;28;20044;-83
2023/06/08 09:06:49;;;;;;;12.43;4.10;;;22.40;99.90;;;;;;4214769;28;20111;-84
2023/06/08 09:08:51;;;;;;;10.88;2.97;;;22.50;99.60;;;;;;4211941;28;20392;-85
2023/06/08 09:11:06;;;;;;;11.93;3.67;;;22.60;99.40;;;;;;4213821;28;20072;-84
2023/06/08 09:13:06;;;;;;;7.13;2.35;;;22.80;99.40;;;;;;4214260;28;20080;-84
2023/06/08 09:15:13;;;;;;;8.60;2.75;;;22.90;99.00;;;;;;4208851;28;20047;-83
2023/06/08 09:17:37;;;;;;;8.70;2.38;;;23.00;98.70;;;;;;4214512;28;20711;-83
2023/06/08 09:19:51;;;;;;;8.18;2.50;;;23.10;98.20;;;;;;4215756;28;20109;-84
2023/06/08 09:21:52;;;;;;;7.30;2.67;;;23.30;98.00;;;;;;4217745;28;20437;-83
2023/06/08 09:24:18;;;;;;;9.85;2.60;;;23.40;98.20;;;;;;4203735;28;20044;-82
2023/06/08 09:26:31;;;;;;;9.25;2.00;;;23.50;97.20;;;;;;4215809;28;20480;-84
2023/06/08 09:28:33;;;;;;;12.45;2.70;;;23.70;97.20;;;;;;4203407;28;20069;-84
2023/06/08 09:30:35;;;;;;;4.95;2.20;;;23.90;97.40;;;;;;4217355;28;20036;-84
2023/06/08 09:32:37;;;;;;;9.68;2.22;;;24.00;96.90;;;;;;4217061;28;20158;-84
2023/06/08 09:34:55;;;;;;;6.53;2.00;;;24.10;96.60;;;;;;4217600;28;20063;-83
2023/06/08 09:37:10;;;;;;;11.48;2.20;;;24.20;95.90;;;;;;4217187;28;20047;-84
2023/06/08 09:39:11;;;;;;;6.90;2.00;;;24.50;96.10;;;;;;4199279;28;20041;-84
2023/06/08 09:41:21;;;;;;;11.15;2.20;;;24.50;96.10;;;;;;4217671;28;20068;-84
2023/06/08 09:43:33;;;;;;;5.68;2.00;;;24.50;95.40;;;;;;4216120;28;20052;-84
2023/06/08 09:45:43;;;;;;;10.95;2.10;;;24.60;94.90;;;;;;4216700;28;20136;-84
2023/06/08 09:47:45;;;;;;;9.50;3.22;;;24.80;94.40;;;;;;4216395;28;20120;-84
2023/06/08 09:49:45;;;;;;;6.88;2.63;;;24.70;94.60;;;;;;4198773;28;20089;-84
2023/06/08 09:51:48;;;;;;;7.47;2.40;;;24.80;94.40;;;;;;4198889;28;20087;-84
2023/06/08 09:53:57;;;;;;;9.88;2.40;;;24.90;94.10;;;;;;4198659;28;20512;-84
2023/06/08 09:55:59;;;;;;;9.32;2.95;;;25.00;93.30;;;;;;4216572;28;20052;-84
2023/06/08 09:58:01;;;;;;;11.73;2.40;;;25.00;93.80;;;;;;4214606;28;20480;-84
2023/06/08 10:00:17;;;;;;;7.60;3.00;;;25.20;93.80;;;;;;4215859;28;20036;-84
2023/06/08 10:02:30;;;;;;;8.90;2.70;;;25.30;93.80;;;;;;4183670;28;20658;-85
2023/06/08 10:04:39;;;;;;;7.55;2.05;;;25.30;93.70;;;;;;4207658;28;20040;-84
2023/06/08 10:06:40;;;;;;;;;;;25.40;93.60;;;;;;4207733;28;20048;-85
2023/06/08 10:08:46;;;;;;;7.47;2.20;;;25.60;92.90;;;;;;4216889;28;20264;-84
2023/06/08 10:10:47;;;;;;;7.07;1.92;;;25.60;93.10;;;;;;4205614;28;20093;-84
2023/06/08 10:12:48;;;;;;;4.60;1.90;;;25.80;93.20;;;;;;4184048;28;20048;-84
2023/06/08 10:14:49;;;;;;;8.27;2.15;;;25.90;92.70;;;;;;4199046;28;20099;-85
2023/06/08 10:17:01;;;;;;;5.75;2.15;;;26.10;92.70;;;;;;4216810;28;20058;-85
2023/06/08 10:19:02;;;;;;;8.55;2.15;;;26.30;92.20;;;;;;4217375;28;20044;-85
2023/06/08 10:21:05;;;;;;;10.05;2.13;;;26.50;91.80;;;;;;4199277;28;20105;-85
2023/06/08 10:23:07;;;;;;;8.02;2.30;;;26.60;90.90;;;;;;4197211;28;20053;-84
2023/06/08 10:25:11;;;;;;;8.32;1.67;;;26.50;91.20;;;;;;4216786;28;20044;-84
2023/06/08 10:27:26;;;;;;;8.32;1.95;;;26.60;90.80;;;;;;4197658;28;20052;-84
2023/06/08 10:29:27;;;;;;;10.13;2.30;;;26.60;89.50;;;;;;4210642;28;20119;-85
2023/06/08 10:31:31;;;;;;;4.10;2.42;;;26.60;90.50;;;;;;4209223;28;20059;-84
2023/06/08 10:33:39;;;;;;;7.05;2.17;;;26.60;90.20;;;;;;4207766;28;20040;-84
2023/06/08 10:35:43;;;;;;;10.00;2.10;;;26.40;90.00;;;;;;4214486;28;20119;-85